UPR Marlboro, Maryland
Current Conditions -  °F | °C
As of 2:58 PM on Sunday 25 Jan 2015 (Local Time) from KADW Reporting Station
Clear Clear  
Wind Chill: 47°   Ceiling: Unl
Heat Index: 49°   Visibility: 10mi
Dew Point: 31°   Wind: 5mph
Humidity: 49%   Direction: 260°W
Pressure: 29.81"   Gusts: NA
Location:  38.8741°N, 76.7678°W
Report Text: KADW 251958Z AUTO 26004KT 10SM CLR 09/M01 A2981 RMK AO2 SLP103 T00941008 $
Loading
Personal Weather Stations






























Interactive Weather Map New forecast layout! Learn more

10-Day Weather Forecast

Advertisements
Track Severe Weather on mobile